createdAt,value
2023-02-26T00:00:37.648Z,85
2023-02-26T00:01:44.587Z,91
2023-02-26T00:02:52.173Z,89
2023-02-26T00:04:01.767Z,86
2023-02-26T00:05:08.881Z,82
2023-02-26T00:06:15.888Z,94
2023-02-26T00:07:22.763Z,83
2023-02-26T00:08:33.037Z,91
2023-02-26T00:09:39.852Z,90
2023-02-26T00:10:47.907Z,81
2023-02-26T00:11:54.815Z,86
2023-02-26T00:13:02.187Z,100
2023-02-26T00:14:09.206Z,86
2023-02-26T00:15:16.149Z,86
2023-02-26T00:16:24.309Z,83
2023-02-26T00:17:33.777Z,83
2023-02-26T00:18:47.607Z,72
2023-02-26T00:19:54.607Z,76
2023-02-26T00:21:07.183Z,81
2023-02-26T00:22:14.123Z,71
2023-02-26T00:23:22.080Z,72
2023-02-26T00:24:29.027Z,74
2023-02-26T00:25:37.504Z,84
2023-02-26T00:26:44.447Z,87
2023-02-26T00:27:52.935Z,81
2023-02-26T00:28:59.962Z,89
2023-02-26T00:30:06.822Z,88
2023-02-26T00:31:14.009Z,94
2023-02-26T00:32:22.150Z,96
2023-02-26T00:33:28.852Z,87
2023-02-26T00:34:36.024Z,100
2023-02-26T00:35:43.181Z,87
2023-02-26T00:36:50.137Z,78
2023-02-26T00:38:02.268Z,98
2023-02-26T00:39:15.366Z,84
2023-02-26T00:40:29.789Z,87
2023-02-26T00:41:42.785Z,100
2023-02-26T00:42:53.073Z,94
2023-02-26T00:44:00.111Z,90
2023-02-26T00:45:07.114Z,90
2023-02-26T00:46:16.337Z,95
2023-02-26T00:47:28.366Z,101
2023-02-26T00:48:45.485Z,103
2023-02-26T00:49:54.757Z,109
2023-02-26T00:51:11.931Z,95
2023-02-26T00:52:25.895Z,98
2023-02-26T00:53:32.964Z,112
2023-02-26T00:54:39.949Z,98
2023-02-26T00:55:48.125Z,108
2023-02-26T00:56:55.301Z,103
2023-02-26T00:58:06.318Z,101
2023-02-26T00:59:13.270Z,109
2023-02-26T01:00:20.298Z,101
2023-02-26T01:01:27.432Z,105
2023-02-26T01:02:34.334Z,96
2023-02-26T01:03:42.253Z,103
2023-02-26T01:04:49.953Z,96
2023-02-26T01:05:56.948Z,102
2023-02-26T01:07:04.028Z,101
2023-02-26T01:08:11.917Z,92
2023-02-26T01:09:26.956Z,95
2023-02-26T01:10:36.532Z,109
2023-02-26T01:11:43.543Z,109
2023-02-26T01:12:50.661Z,95
2023-02-26T01:13:57.605Z,93
2023-02-26T01:15:05.728Z,97
2023-02-26T01:16:15.335Z,82
2023-02-26T01:17:22.175Z,102
2023-02-26T01:18:30.736Z,98
2023-02-26T01:19:41.215Z,99
2023-02-26T01:20:53.391Z,95
2023-02-26T01:22:00.410Z,99
2023-02-26T01:23:08.239Z,89
2023-02-26T01:24:24.520Z,86
2023-02-26T01:25:32.743Z,90
2023-02-26T01:26:45.283Z,79
2023-02-26T01:27:54.353Z,80
2023-02-26T01:29:03.367Z,88
2023-02-26T01:30:10.422Z,91
2023-02-26T01:31:20.706Z,86
2023-02-26T01:32:35.616Z,85
2023-02-26T01:33:47.639Z,81
2023-02-26T01:34:57.452Z,81
2023-02-26T01:36:09.510Z,82
2023-02-26T01:37:16.449Z,76
2023-02-26T01:38:28.616Z,86
2023-02-26T01:39:47.553Z,79
2023-02-26T01:40:57.484Z,64
2023-02-26T01:42:09.502Z,71
2023-02-26T01:43:23.783Z,74
2023-02-26T01:44:36.344Z,70
2023-02-26T01:45:47.013Z,76
2023-02-26T01:46:57.629Z,73
2023-02-26T01:48:14.904Z,77
2023-02-26T01:49:24.779Z,72
2023-02-26T01:50:31.760Z,66
2023-02-26T01:51:39.797Z,69
2023-02-26T01:52:51.802Z,67
2023-02-26T01:54:06.996Z,67
2023-02-26T01:55:15.076Z,65
2023-02-26T01:56:25.194Z,53
2023-02-26T01:57:33.386Z,60
2023-02-26T01:58:40.411Z,72
2023-02-26T01:59:49.004Z,66
2023-02-26T02:00:57.031Z,63
2023-02-26T02:02:04.179Z,57
2023-02-26T02:03:12.029Z,70
2023-02-26T02:04:19.119Z,71
2023-02-26T02:05:26.211Z,58
2023-02-26T02:06:36.021Z,58
2023-02-26T02:07:42.893Z,63
2023-02-26T02:08:50.445Z,49
2023-02-26T02:09:58.852Z,62
2023-02-26T02:11:05.780Z,53
2023-02-26T02:12:14.744Z,51
2023-02-26T02:13:26.749Z,57
2023-02-26T02:14:33.717Z,55
2023-02-26T02:15:51.133Z,53
2023-02-26T02:17:03.347Z,42
2023-02-26T02:18:18.039Z,57
2023-02-26T02:19:25.055Z,56
2023-02-26T02:20:42.433Z,53
2023-02-26T02:21:55.987Z,49
2023-02-26T02:23:14.198Z,51
2023-02-26T02:24:23.374Z,37
2023-02-26T02:25:40.509Z,50
2023-02-26T02:26:53.547Z,41
2023-02-26T02:28:03.321Z,53
2023-02-26T02:29:18.105Z,51
2023-02-26T02:30:30.122Z,52
2023-02-26T02:31:44.477Z,45
2023-02-26T02:32:56.460Z,48
2023-02-26T02:34:05.864Z,49
2023-02-26T02:35:21.647Z,43
2023-02-26T02:36:30.504Z,48
2023-02-26T02:37:47.604Z,44
2023-02-26T02:38:54.451Z,52
2023-02-26T02:40:02.427Z,51
2023-02-26T02:41:12.000Z,39
2023-02-26T02:42:18.888Z,46
2023-02-26T02:43:26.985Z,40
2023-02-26T02:44:34.105Z,52
2023-02-26T02:45:44.706Z,46
2023-02-26T02:46:59.359Z,43
2023-02-26T02:48:06.219Z,36
2023-02-26T02:49:15.689Z,47
2023-02-26T02:50:27.809Z,35
2023-02-26T02:51:35.664Z,37
2023-02-26T02:52:49.062Z,46
2023-02-26T02:54:01.644Z,47
2023-02-26T02:55:08.646Z,37
2023-02-26T02:56:22.238Z,35
2023-02-26T02:57:32.431Z,50
2023-02-26T02:58:39.234Z,44
2023-02-26T02:59:46.177Z,36
2023-02-26T03:00:53.092Z,47
2023-02-26T03:02:00.948Z,37
2023-02-26T03:03:07.939Z,40
2023-02-26T03:04:20.019Z,26
2023-02-26T03:05:26.876Z,36
2023-02-26T03:06:34.358Z,25
2023-02-26T03:07:42.164Z,43
2023-02-26T03:08:55.386Z,25
2023-02-26T03:10:02.329Z,35
2023-02-26T03:11:09.335Z,43
2023-02-26T03:12:16.159Z,32
2023-02-26T03:13:22.991Z,36
2023-02-26T03:14:30.011Z,30
2023-02-26T03:15:36.979Z,34
2023-02-26T03:16:49.123Z,41
2023-02-26T03:18:01.156Z,36
2023-02-26T03:19:16.111Z,31
2023-02-26T03:20:31.108Z,34
2023-02-26T03:21:42.484Z,33
2023-02-26T03:22:58.564Z,39
2023-02-26T03:24:08.248Z,37
2023-02-26T03:25:20.363Z,36
2023-02-26T03:26:31.678Z,31
2023-02-26T03:27:43.672Z,25
2023-02-26T03:28:53.427Z,33
2023-02-26T03:30:07.034Z,28
2023-02-26T03:31:19.107Z,25
2023-02-26T03:32:34.403Z,27
2023-02-26T03:33:42.582Z,30
2023-02-26T03:35:01.380Z,25
2023-02-26T03:36:13.557Z,32
2023-02-26T03:37:24.649Z,31
2023-02-26T03:38:37.650Z,31
2023-02-26T03:39:49.577Z,27
2023-02-26T03:40:58.362Z,42
2023-02-26T03:42:06.248Z,38
2023-02-26T03:43:21.036Z,35
2023-02-26T03:44:34.376Z,49
2023-02-26T03:45:41.331Z,44
2023-02-26T03:46:48.110Z,25
2023-02-26T03:47:58.748Z,43
2023-02-26T03:49:06.249Z,47
2023-02-26T03:50:12.946Z,39
2023-02-26T03:51:27.643Z,37
2023-02-26T03:52:36.889Z,42
2023-02-26T03:53:43.797Z,31
2023-02-26T03:54:55.293Z,39
2023-02-26T03:56:02.794Z,39
2023-02-26T03:57:12.656Z,40
2023-02-26T03:58:19.586Z,41
2023-02-26T03:59:29.845Z,34
2023-02-26T04:00:36.816Z,38
2023-02-26T04:01:43.740Z,33
2023-02-26T04:02:55.940Z,29
2023-02-26T04:04:03.062Z,37
2023-02-26T04:05:10.016Z,42
2023-02-26T04:06:19.960Z,25
2023-02-26T04:07:27.132Z,32
2023-02-26T04:08:34.300Z,31
2023-02-26T04:09:41.216Z,39
2023-02-26T04:10:48.169Z,29
2023-02-26T04:12:03.078Z,27
2023-02-26T04:13:10.146Z,25
2023-02-26T04:14:17.092Z,27
2023-02-26T04:15:24.072Z,34
2023-02-26T04:16:31.568Z,32
2023-02-26T04:17:38.436Z,42
2023-02-26T04:18:45.283Z,40
2023-02-26T04:19:52.202Z,41
2023-02-26T04:20:59.114Z,34
2023-02-26T04:22:06.935Z,31
2023-02-26T04:23:13.843Z,29
2023-02-26T04:24:21.568Z,41
2023-02-26T04:25:29.450Z,35
2023-02-26T04:26:37.276Z,49
2023-02-26T04:27:47.007Z,37
2023-02-26T04:28:54.570Z,38
2023-02-26T04:30:01.699Z,25
2023-02-26T04:31:09.702Z,37
2023-02-26T04:32:15.881Z,41
2023-02-26T04:33:22.673Z,29
2023-02-26T04:34:29.664Z,27
2023-02-26T04:35:36.601Z,32
2023-02-26T04:36:45.768Z,32
2023-02-26T04:37:52.758Z,37
2023-02-26T04:39:01.396Z,33
2023-02-26T04:40:08.244Z,32
2023-02-26T04:41:15.447Z,32
2023-02-26T04:42:22.207Z,30
2023-02-26T04:43:29.088Z,30
2023-02-26T04:44:36.200Z,27
2023-02-26T04:45:44.440Z,34
2023-02-26T04:46:51.429Z,32
2023-02-26T04:48:00.921Z,33
2023-02-26T04:49:08.693Z,37
2023-02-26T04:50:15.537Z,33
2023-02-26T04:51:22.453Z,37
2023-02-26T04:52:29.339Z,41
2023-02-26T04:53:37.904Z,33
2023-02-26T04:54:46.265Z,25
2023-02-26T04:55:53.112Z,34
2023-02-26T04:57:00.002Z,31
2023-02-26T04:58:08.747Z,41
2023-02-26T04:59:15.667Z,32
2023-02-26T05:00:22.714Z,28
2023-02-26T05:01:29.701Z,45
2023-02-26T05:02:36.493Z,41
2023-02-26T05:03:44.992Z,26
2023-02-26T05:04:51.883Z,25
2023-02-26T05:05:58.702Z,27
2023-02-26T05:07:06.511Z,38
2023-02-26T05:08:13.443Z,34
2023-02-26T05:09:20.337Z,39
2023-02-26T05:10:27.108Z,26
2023-02-26T05:11:33.986Z,44
2023-02-26T05:12:40.854Z,32
2023-02-26T05:13:48.723Z,40
2023-02-26T05:14:57.040Z,35
2023-02-26T05:16:04.081Z,35
2023-02-26T05:17:11.795Z,35
2023-02-26T05:18:18.684Z,35
2023-02-26T05:19:25.595Z,42
2023-02-26T05:20:32.511Z,43
2023-02-26T05:21:40.317Z,34
2023-02-26T05:22:48.370Z,29
2023-02-26T05:23:55.301Z,30
2023-02-26T05:25:02.233Z,27
2023-02-26T05:26:09.703Z,41
2023-02-26T05:27:16.685Z,41
2023-02-26T05:28:23.562Z,37
2023-02-26T05:29:30.362Z,34
2023-02-26T05:30:38.222Z,45
2023-02-26T05:31:46.039Z,32
2023-02-26T05:32:52.697Z,32
2023-02-26T05:34:00.589Z,32
2023-02-26T05:35:07.780Z,26
2023-02-26T05:36:14.740Z,33
2023-02-26T05:37:21.737Z,25
2023-02-26T05:38:30.450Z,34
2023-02-26T05:39:37.291Z,33
2023-02-26T05:40:46.907Z,48
2023-02-26T05:41:53.844Z,45
2023-02-26T05:43:01.903Z,43
2023-02-26T05:44:09.889Z,30
2023-02-26T05:45:19.499Z,28
2023-02-26T05:46:28.690Z,42
2023-02-26T05:47:35.231Z,33
2023-02-26T05:48:45.758Z,41
2023-02-26T05:49:51.368Z,52
2023-02-26T05:50:58.409Z,36
2023-02-26T05:52:05.235Z,46
2023-02-26T05:53:12.172Z,47
2023-02-26T05:54:21.206Z,37
2023-02-26T05:55:28.110Z,43
2023-02-26T05:56:35.687Z,49
2023-02-26T05:57:43.549Z,38
2023-02-26T05:58:50.357Z,38
2023-02-26T05:59:57.283Z,35
2023-02-26T06:01:04.248Z,33
2023-02-26T06:02:11.141Z,35
2023-02-26T06:03:18.667Z,35
2023-02-26T06:04:28.832Z,30
2023-02-26T06:05:38.721Z,36
2023-02-26T06:06:45.481Z,35
2023-02-26T06:07:52.907Z,33
2023-02-26T06:08:59.816Z,30
2023-02-26T06:10:06.911Z,41
2023-02-26T06:11:15.135Z,26
2023-02-26T06:12:22.184Z,28
2023-02-26T06:13:29.045Z,34
2023-02-26T06:14:35.977Z,37
2023-02-26T06:15:42.964Z,31
2023-02-26T06:16:49.881Z,35
2023-02-26T06:17:56.980Z,42
2023-02-26T06:19:03.933Z,35
2023-02-26T06:20:12.688Z,49
2023-02-26T06:21:19.842Z,48
2023-02-26T06:22:28.210Z,39
2023-02-26T06:23:35.435Z,40
2023-02-26T06:24:43.289Z,50
2023-02-26T06:25:50.697Z,44
2023-02-26T06:26:58.857Z,43
2023-02-26T06:28:06.627Z,42
2023-02-26T06:29:14.323Z,38
2023-02-26T06:30:21.237Z,36
2023-02-26T06:31:29.775Z,37
2023-02-26T06:32:37.274Z,42
2023-02-26T06:33:45.315Z,44
2023-02-26T06:34:52.366Z,29
2023-02-26T06:35:59.258Z,41
2023-02-26T06:37:06.076Z,41
2023-02-26T06:38:14.024Z,42
2023-02-26T06:39:20.864Z,36
2023-02-26T06:40:29.589Z,32
2023-02-26T06:41:36.888Z,36
2023-02-26T06:42:46.708Z,48
2023-02-26T06:43:54.613Z,43
2023-02-26T06:45:01.557Z,36
2023-02-26T06:46:08.610Z,36
2023-02-26T06:47:15.803Z,38
2023-02-26T06:48:25.241Z,36
2023-02-26T06:49:33.069Z,33
2023-02-26T06:50:40.437Z,32
2023-02-26T06:51:47.335Z,25
2023-02-26T06:52:56.120Z,25
2023-02-26T06:54:03.059Z,47
2023-02-26T06:55:10.008Z,39
2023-02-26T06:56:16.891Z,28
2023-02-26T06:57:47.214Z,38
2023-02-26T06:58:32.739Z,40
2023-02-26T06:59:41.300Z,35
2023-02-26T07:00:48.381Z,39
2023-02-26T07:02:19.648Z,48
2023-02-26T07:03:05.373Z,45
2023-02-26T07:04:20.582Z,44
2023-02-26T07:05:25.742Z,47
2023-02-26T07:06:32.662Z,43
2023-02-26T07:07:40.429Z,33
2023-02-26T07:08:47.338Z,43
2023-02-26T07:09:54.260Z,31
2023-02-26T07:11:01.263Z,49
2023-02-26T07:12:08.375Z,52
2023-02-26T07:13:15.956Z,51
2023-02-26T07:14:22.815Z,55
2023-02-26T07:15:29.748Z,48
2023-02-26T07:16:36.796Z,51
2023-02-26T07:17:43.731Z,40
2023-02-26T07:18:50.500Z,43
2023-02-26T07:19:57.437Z,37
2023-02-26T07:21:05.314Z,45
2023-02-26T07:22:12.110Z,33
2023-02-26T07:23:20.272Z,47
2023-02-26T07:24:27.499Z,44
2023-02-26T07:25:34.332Z,31
2023-02-26T07:26:41.292Z,37
2023-02-26T07:27:49.291Z,39
2023-02-26T07:28:56.213Z,39
2023-02-26T07:30:03.052Z,50
2023-02-26T07:31:10.413Z,54
2023-02-26T07:32:17.706Z,42
2023-02-26T07:33:24.525Z,47
2023-02-26T07:34:31.371Z,35
2023-02-26T07:35:38.430Z,33
2023-02-26T07:36:47.158Z,36
2023-02-26T07:37:54.161Z,67
2023-02-26T07:39:04.359Z,49
2023-02-26T07:40:11.532Z,50
2023-02-26T07:41:18.411Z,52
2023-02-26T07:42:26.155Z,50
2023-02-26T07:43:33.149Z,51
2023-02-26T07:44:41.111Z,50
2023-02-26T07:45:47.995Z,45
2023-02-26T07:46:54.842Z,61
2023-02-26T07:48:02.637Z,51
2023-02-26T07:49:09.485Z,45
2023-02-26T07:50:16.333Z,57
2023-02-26T07:51:23.568Z,66
2023-02-26T07:52:30.335Z,54
2023-02-26T07:53:39.617Z,53
2023-02-26T07:54:46.389Z,56
2023-02-26T07:55:55.875Z,55
2023-02-26T07:57:02.922Z,57
2023-02-26T07:58:09.912Z,56
2023-02-26T07:59:16.890Z,53
2023-02-26T08:00:27.148Z,57
2023-02-26T08:01:35.101Z,60
2023-02-26T08:02:44.148Z,67
2023-02-26T08:03:51.012Z,66
2023-02-26T08:04:58.179Z,50
2023-02-26T08:06:05.199Z,76
2023-02-26T08:07:12.961Z,66
2023-02-26T08:08:22.124Z,80
2023-02-26T08:09:29.128Z,79
2023-02-26T08:10:36.182Z,80
2023-02-26T08:11:43.072Z,84
2023-02-26T08:12:49.912Z,93
2023-02-26T08:13:56.773Z,89
2023-02-26T08:15:04.415Z,90
2023-02-26T08:16:11.645Z,92
2023-02-26T08:17:19.934Z,106
2023-02-26T08:18:26.836Z,92
2023-02-26T08:19:33.611Z,88
2023-02-26T08:20:40.486Z,88
2023-02-26T08:21:50.767Z,90
2023-02-26T08:22:56.458Z,91
2023-02-26T08:24:03.635Z,92
2023-02-26T08:25:10.792Z,105
2023-02-26T08:26:17.772Z,94
2023-02-26T08:27:24.689Z,90
2023-02-26T08:28:33.120Z,96
2023-02-26T08:29:40.045Z,97
2023-02-26T08:30:47.214Z,103
2023-02-26T08:31:54.209Z,87
2023-02-26T08:33:00.904Z,95
2023-02-26T08:34:07.880Z,121
2023-02-26T08:35:14.793Z,110
2023-02-26T08:36:21.819Z,127
2023-02-26T08:37:28.905Z,108
2023-02-26T08:38:35.877Z,102
2023-02-26T08:39:42.764Z,105
2023-02-26T08:40:51.032Z,119
2023-02-26T08:41:57.909Z,107
2023-02-26T08:43:05.979Z,114
2023-02-26T08:44:14.065Z,106
2023-02-26T08:45:21.105Z,104
2023-02-26T08:46:30.395Z,100
2023-02-26T08:47:39.517Z,106
2023-02-26T08:48:43.807Z,107
2023-02-26T08:49:50.705Z,111
2023-02-26T08:50:59.321Z,121
2023-02-26T08:52:06.746Z,116
2023-02-26T08:53:14.150Z,118
2023-02-26T08:54:21.013Z,108
2023-02-26T08:55:31.202Z,98
2023-02-26T08:56:38.039Z,93
2023-02-26T08:57:44.905Z,104
2023-02-26T08:58:51.723Z,114
2023-02-26T08:59:58.769Z,110
2023-02-26T09:01:05.842Z,107
2023-02-26T09:02:12.888Z,115
2023-02-26T09:03:19.667Z,109
2023-02-26T09:04:27.100Z,98
2023-02-26T09:05:33.427Z,94
2023-02-26T09:06:40.260Z,90
2023-02-26T09:07:47.052Z,89
2023-02-26T09:08:53.872Z,90
2023-02-26T09:10:00.678Z,94
2023-02-26T09:11:07.759Z,89
2023-02-26T09:12:14.668Z,90
2023-02-26T09:13:21.476Z,102
2023-02-26T09:14:28.353Z,97
2023-02-26T09:15:35.212Z,109
2023-02-26T09:16:42.129Z,100
2023-02-26T09:17:49.022Z,111
2023-02-26T09:18:55.992Z,113
2023-02-26T09:20:02.797Z,95
2023-02-26T09:21:09.739Z,103
2023-02-26T09:22:16.596Z,107
2023-02-26T09:23:23.489Z,102
2023-02-26T09:24:30.475Z,112
2023-02-26T09:25:37.287Z,95
2023-02-26T09:26:44.163Z,98
2023-02-26T09:27:50.918Z,75
2023-02-26T09:28:57.747Z,77
2023-02-26T09:30:04.642Z,67
2023-02-26T09:31:11.906Z,65
2023-02-26T09:32:18.748Z,58
2023-02-26T09:33:25.499Z,52
2023-02-26T09:34:32.414Z,57
2023-02-26T09:35:39.403Z,69
2023-02-26T09:36:46.250Z,60
2023-02-26T09:37:53.108Z,57
2023-02-26T09:39:00.032Z,61
2023-02-26T09:40:06.877Z,54
2023-02-26T09:41:21.859Z,36
2023-02-26T09:42:28.735Z,32
2023-02-26T09:43:35.549Z,28
2023-02-26T09:44:42.619Z,38
2023-02-26T09:45:49.674Z,38
2023-02-26T09:46:56.558Z,40
2023-02-26T09:48:08.606Z,29
2023-02-26T09:49:15.506Z,25
2023-02-26T09:50:22.318Z,29
2023-02-26T09:51:32.227Z,37
2023-02-26T09:52:39.137Z,25
2023-02-26T09:53:49.017Z,48
2023-02-26T09:54:55.982Z,37
2023-02-26T09:56:07.997Z,25
2023-02-26T09:57:14.866Z,25
2023-02-26T09:58:32.211Z,35
2023-02-26T09:59:39.055Z,46
2023-02-26T10:00:45.931Z,44
2023-02-26T10:02:03.308Z,35
2023-02-26T10:03:20.489Z,40
2023-02-26T10:04:37.768Z,25
2023-02-26T10:05:47.341Z,31
2023-02-26T10:07:04.558Z,27
2023-02-26T10:08:16.840Z,35
2023-02-26T10:09:23.761Z,30
2023-02-26T10:10:36.074Z,30
2023-02-26T10:11:53.278Z,25
2023-02-26T10:13:02.224Z,35
2023-02-26T10:14:09.016Z,25
2023-02-26T10:15:16.433Z,26
2023-02-26T10:16:27.719Z,42
2023-02-26T10:17:34.314Z,25
2023-02-26T10:18:49.116Z,51
2023-02-26T10:19:58.718Z,28
2023-02-26T10:21:06.785Z,31
2023-02-26T10:22:18.694Z,30
2023-02-26T10:23:25.549Z,30
2023-02-26T10:24:35.600Z,40
2023-02-26T10:25:43.240Z,25
2023-02-26T10:26:49.977Z,34
2023-02-26T10:28:01.073Z,27
2023-02-26T10:29:18.047Z,41
2023-02-26T10:30:29.968Z,40
2023-02-26T10:31:44.525Z,30
2023-02-26T10:33:01.552Z,25
2023-02-26T10:34:16.462Z,25
2023-02-26T10:35:33.387Z,34
2023-02-26T10:36:40.177Z,36
2023-02-26T10:37:57.051Z,35
2023-02-26T10:39:06.648Z,29
2023-02-26T10:40:19.450Z,27
2023-02-26T10:41:36.454Z,36
2023-02-26T10:42:43.328Z,30
2023-02-26T10:43:55.246Z,37
2023-02-26T10:45:07.097Z,30
2023-02-26T10:46:24.111Z,30
2023-02-26T10:47:38.833Z,25
2023-02-26T10:48:55.829Z,35
2023-02-26T10:50:12.801Z,38
2023-02-26T10:51:19.604Z,37
2023-02-26T10:52:27.298Z,37
2023-02-26T10:53:34.101Z,34
2023-02-26T10:54:41.024Z,34
2023-02-26T10:55:47.890Z,37
2023-02-26T10:56:55.973Z,35
2023-02-26T10:58:02.783Z,32
2023-02-26T10:59:16.611Z,30
2023-02-26T11:00:21.524Z,34
2023-02-26T11:01:28.674Z,34
2023-02-26T11:02:35.302Z,36
2023-02-26T11:03:45.150Z,40
2023-02-26T11:05:05.815Z,34
2023-02-26T11:05:58.982Z,37
2023-02-26T11:07:06.040Z,47
2023-02-26T11:08:13.718Z,43
2023-02-26T11:09:28.286Z,37
2023-02-26T11:10:40.358Z,33
2023-02-26T11:11:52.355Z,47
2023-02-26T11:12:59.279Z,60
2023-02-26T11:14:06.101Z,53
2023-02-26T11:15:12.960Z,48
2023-02-26T11:16:22.763Z,38
2023-02-26T11:17:29.600Z,50
2023-02-26T11:18:36.525Z,62
2023-02-26T11:19:48.455Z,66
2023-02-26T11:21:00.340Z,62
2023-02-26T11:22:07.207Z,72
2023-02-26T11:23:16.971Z,81
2023-02-26T11:24:24.590Z,94
2023-02-26T11:25:36.519Z,106
2023-02-26T11:26:43.379Z,105
2023-02-26T11:27:50.320Z,106
2023-02-26T11:28:57.187Z,109
2023-02-26T11:30:04.047Z,114
2023-02-26T11:31:16.232Z,122
2023-02-26T11:32:23.761Z,118
2023-02-26T11:33:33.499Z,117
2023-02-26T11:34:43.132Z,109
2023-02-26T11:35:50.026Z,108
2023-02-26T11:36:56.852Z,111
2023-02-26T11:38:03.937Z,111
2023-02-26T11:39:10.835Z,111
2023-02-26T11:40:18.510Z,118
2023-02-26T11:41:29.142Z,121
2023-02-26T11:42:35.916Z,125
2023-02-26T11:43:44.667Z,135
2023-02-26T11:44:49.652Z,131
2023-02-26T11:45:56.638Z,134
2023-02-26T11:47:03.506Z,126
2023-02-26T11:48:15.482Z,133
2023-02-26T11:49:25.393Z,126
2023-02-26T11:50:33.446Z,115
2023-02-26T11:51:48.309Z,128
2023-02-26T11:53:05.393Z,115
2023-02-26T11:54:12.260Z,131
2023-02-26T11:55:26.756Z,114
2023-02-26T11:56:33.630Z,120
2023-02-26T11:57:44.982Z,112
2023-02-26T11:58:55.342Z,114
2023-02-26T12:00:01.510Z,126
2023-02-26T12:01:10.457Z,114
2023-02-26T12:02:17.327Z,111
2023-02-26T12:03:26.875Z,110
2023-02-26T12:04:34.928Z,100
2023-02-26T12:05:41.813Z,113
2023-02-26T12:06:48.632Z,107
2023-02-26T12:07:55.572Z,97
2023-02-26T12:09:02.404Z,97
2023-02-26T12:10:17.444Z,99
2023-02-26T12:11:24.276Z,105
2023-02-26T12:12:38.912Z,98
2023-02-26T12:13:50.850Z,98
2023-02-26T12:15:07.997Z,107
2023-02-26T12:16:24.866Z,104
2023-02-26T12:17:42.707Z,99
2023-02-26T12:18:59.796Z,102
2023-02-26T12:20:09.943Z,102
2023-02-26T12:21:24.954Z,102
2023-02-26T12:22:39.282Z,91
2023-02-26T12:23:56.241Z,80
2023-02-26T12:25:13.153Z,92
2023-02-26T12:26:25.016Z,72
2023-02-26T12:27:39.920Z,76
2023-02-26T12:28:52.684Z,66
2023-02-26T12:30:09.655Z,57
2023-02-26T12:31:27.115Z,63
2023-02-26T12:32:38.744Z,68
2023-02-26T12:33:50.711Z,54
2023-02-26T12:35:07.670Z,68
2023-02-26T12:36:19.569Z,50
2023-02-26T12:37:31.473Z,58
2023-02-26T12:38:48.459Z,60
2023-02-26T12:39:57.902Z,60
2023-02-26T12:41:09.802Z,63
2023-02-26T12:42:21.741Z,58
2023-02-26T12:43:28.541Z,52
2023-02-26T12:44:40.457Z,56
2023-02-26T12:45:57.388Z,55
2023-02-26T12:47:12.113Z,45
2023-02-26T12:48:29.053Z,45
2023-02-26T12:49:40.973Z,37
2023-02-26T12:50:55.379Z,38
2023-02-26T12:52:12.459Z,33
2023-02-26T12:53:25.397Z,37
2023-02-26T12:54:37.346Z,32
2023-02-26T12:55:49.297Z,41
2023-02-26T12:56:58.800Z,36
2023-02-26T12:58:08.427Z,34
2023-02-26T12:59:25.594Z,37
2023-02-26T13:00:37.635Z,25
2023-02-26T13:02:00.249Z,48
2023-02-26T13:03:05.090Z,31
2023-02-26T13:04:14.902Z,39
2023-02-26T13:05:26.986Z,45
2023-02-26T13:06:42.018Z,34
2023-02-26T13:07:59.144Z,37
2023-02-26T13:09:08.719Z,35
2023-02-26T13:10:20.755Z,31
2023-02-26T13:11:36.420Z,44
2023-02-26T13:12:51.279Z,43
2023-02-26T13:14:08.755Z,47
2023-02-26T13:15:25.704Z,40
2023-02-26T13:16:42.732Z,34
2023-02-26T13:17:59.981Z,50
2023-02-26T13:19:12.117Z,34
2023-02-26T13:20:21.822Z,43
2023-02-26T13:21:29.205Z,48
2023-02-26T13:22:43.479Z,47
2023-02-26T13:23:52.909Z,40
2023-02-26T13:25:07.655Z,41
2023-02-26T13:26:24.633Z,65
2023-02-26T13:27:31.663Z,59
2023-02-26T13:28:39.716Z,71
2023-02-26T13:29:55.375Z,70
2023-02-26T13:31:10.732Z,71
2023-02-26T13:32:38.088Z,68
2023-02-26T13:33:36.392Z,65
2023-02-26T13:34:43.413Z,78
2023-02-26T13:36:00.307Z,73
2023-02-26T13:37:07.264Z,85
2023-02-26T13:38:19.131Z,80
2023-02-26T13:39:33.965Z,81
2023-02-26T13:40:43.977Z,82
2023-02-26T13:41:55.949Z,75
2023-02-26T13:43:07.893Z,88
2023-02-26T13:44:19.761Z,92
2023-02-26T13:45:36.756Z,100
2023-02-26T13:46:48.599Z,100
2023-02-26T13:47:58.196Z,89
2023-02-26T13:49:09.993Z,93
2023-02-26T13:50:28.533Z,96
2023-02-26T13:51:41.318Z,93
2023-02-26T13:52:51.141Z,89
2023-02-26T13:54:00.560Z,83
2023-02-26T13:55:07.505Z,81
2023-02-26T13:56:14.528Z,81
2023-02-26T13:57:21.469Z,82
2023-02-26T13:58:36.918Z,81
2023-02-26T13:59:43.901Z,78
2023-02-26T14:00:50.832Z,84
2023-02-26T14:02:00.384Z,81
2023-02-26T14:03:17.286Z,90
2023-02-26T14:04:29.229Z,77
2023-02-26T14:05:37.093Z,78
2023-02-26T14:06:51.633Z,88
2023-02-26T14:08:03.776Z,89
2023-02-26T14:09:18.393Z,92
2023-02-26T14:10:25.314Z,99
2023-02-26T14:11:39.199Z,94
2023-02-26T14:12:46.100Z,87
2023-02-26T14:13:54.878Z,84
2023-02-26T14:15:09.678Z,81
2023-02-26T14:16:16.664Z,80
2023-02-26T14:17:30.440Z,73
2023-02-26T14:18:47.440Z,71
2023-02-26T14:19:54.387Z,69
2023-02-26T14:21:01.404Z,64
2023-02-26T14:22:18.362Z,70
2023-02-26T14:23:26.264Z,66
2023-02-26T14:24:33.242Z,74
2023-02-26T14:25:42.841Z,72
2023-02-26T14:26:52.427Z,71
2023-02-26T14:28:04.242Z,65
2023-02-26T14:29:21.168Z,90
2023-02-26T14:30:31.335Z,79
2023-02-26T14:31:38.836Z,72
2023-02-26T14:32:53.449Z,57
2023-02-26T14:34:05.409Z,53
2023-02-26T14:35:12.288Z,53
2023-02-26T14:36:24.417Z,72
2023-02-26T14:37:36.302Z,54
2023-02-26T14:38:44.896Z,67
2023-02-26T14:39:51.777Z,51
2023-02-26T14:41:02.969Z,57
2023-02-26T14:42:09.828Z,57
2023-02-26T14:43:21.746Z,46
2023-02-26T14:44:38.659Z,39
2023-02-26T14:45:48.644Z,52
2023-02-26T14:46:55.741Z,56
2023-02-26T14:48:03.543Z,50
2023-02-26T14:49:10.432Z,38
2023-02-26T14:50:22.305Z,46
2023-02-26T14:51:29.555Z,47
2023-02-26T14:52:46.158Z,54
2023-02-26T14:54:01.565Z,58
2023-02-26T14:55:13.472Z,46
2023-02-26T14:56:25.369Z,58
2023-02-26T14:57:34.843Z,55
2023-02-26T14:58:50.481Z,47
2023-02-26T15:00:05.310Z,50
2023-02-26T15:01:21.775Z,45
2023-02-26T15:02:37.015Z,45
2023-02-26T15:03:49.750Z,43
2023-02-26T15:05:06.706Z,56
2023-02-26T15:06:23.689Z,69
2023-02-26T15:07:35.609Z,60
2023-02-26T15:08:44.998Z,62
2023-02-26T15:10:02.792Z,67
2023-02-26T15:11:19.882Z,49
2023-02-26T15:12:32.850Z,59
2023-02-26T15:13:44.782Z,70
2023-02-26T15:15:01.769Z,63
2023-02-26T15:16:16.391Z,75
2023-02-26T15:17:33.331Z,64
2023-02-26T15:18:45.991Z,77
2023-02-26T15:19:52.874Z,64
2023-02-26T15:21:02.338Z,68
2023-02-26T15:22:19.978Z,54
2023-02-26T15:23:34.883Z,52
2023-02-26T15:24:47.103Z,47
2023-02-26T15:25:53.999Z,65
2023-02-26T15:27:00.913Z,62
2023-02-26T15:28:07.841Z,56
2023-02-26T15:29:14.640Z,46
2023-02-26T15:30:21.514Z,38
2023-02-26T15:31:28.452Z,34
2023-02-26T15:32:35.246Z,38
2023-02-26T15:33:42.163Z,33
2023-02-26T15:34:49.895Z,35
2023-02-26T15:36:04.271Z,25
2023-02-26T15:37:12.166Z,38
2023-02-26T15:38:19.028Z,45
2023-02-26T15:39:26.857Z,48
2023-02-26T15:40:33.723Z,56
2023-02-26T15:41:40.548Z,31
2023-02-26T15:42:47.366Z,32
2023-02-26T15:43:56.792Z,28
2023-02-26T15:45:08.753Z,47
2023-02-26T15:46:16.670Z,40
2023-02-26T15:47:23.501Z,53
2023-02-26T15:48:32.382Z,43
2023-02-26T15:49:39.248Z,32
2023-02-26T15:50:46.203Z,33
2023-02-26T15:51:52.969Z,38
2023-02-26T15:53:00.550Z,25
2023-02-26T15:54:07.364Z,25
2023-02-26T15:55:14.210Z,31
2023-02-26T15:56:21.135Z,28
2023-02-26T15:57:28.036Z,39
2023-02-26T15:58:36.477Z,34
2023-02-26T15:59:43.325Z,35
2023-02-26T16:00:51.090Z,33
2023-02-26T16:01:58.070Z,40
2023-02-26T16:03:05.168Z,42
2023-02-26T16:04:12.049Z,52
2023-02-26T16:05:24.294Z,33
2023-02-26T16:06:31.205Z,34
2023-02-26T16:07:39.927Z,32
2023-02-26T16:08:47.601Z,31
2023-02-26T16:09:55.360Z,29
2023-02-26T16:11:03.483Z,31
2023-02-26T16:12:10.346Z,38
2023-02-26T16:13:19.832Z,35
2023-02-26T16:14:26.942Z,43
2023-02-26T16:15:39.751Z,33
2023-02-26T16:16:47.233Z,26
2023-02-26T16:17:55.017Z,25
2023-02-26T16:19:01.856Z,27
2023-02-26T16:20:11.072Z,34
2023-02-26T16:21:17.647Z,34
2023-02-26T16:22:32.187Z,42
2023-02-26T16:23:39.123Z,38
2023-02-26T16:24:49.082Z,34